Time,TemperatureF,DewpointF,PressureIn,WindDirection,WindDirectionDegrees,WindSpeedMPH,WindSpeedGustMPH,Humidity,HourlyPrecipIn,Conditions,Clouds,dailyrainin,SoftwareType,DateUTC
2013-01-27 00:01:00,26.0,15.0,30.17,South,186,10.0,18.0,63,0.00,,,0.00,,2013-01-27 06:01:00,
2013-01-27 00:11:00,26.0,15.0,30.17,South,186,10.0,18.0,63,0.00,,,0.00,,2013-01-27 06:11:00,
2013-01-27 00:21:00,26.0,15.0,30.17,SSE,158,9.0,15.0,63,0.00,,,0.00,,2013-01-27 06:21:00,
2013-01-27 00:32:00,26.0,16.0,30.17,SSE,168,8.0,13.0,64,0.00,,,0.00,,2013-01-27 06:32:00,
2013-01-27 00:42:00,26.0,16.0,30.17,SSE,168,8.0,13.0,64,0.00,,,0.00,,2013-01-27 06:42:00,
2013-01-27 00:52:00,26.0,16.0,30.17,South,172,7.0,13.0,64,0.00,,,0.00,,2013-01-27 06:52:00,
2013-01-27 01:01:00,26.0,16.0,30.16,South,179,5.0,10.0,64,0.00,,,0.00,,2013-01-27 07:01:00,
2013-01-27 01:14:00,26.0,16.0,30.16,South,179,5.0,10.0,64,0.00,,,0.00,,2013-01-27 07:14:00,
2013-01-27 01:21:00,26.0,16.0,30.15,SSE,150,9.0,15.0,64,0.00,,,0.00,,2013-01-27 07:21:00,
2013-01-27 01:31:00,27.0,16.0,30.14,South,172,7.0,15.0,63,0.00,,,0.00,,2013-01-27 07:31:00,
2013-01-27 01:41:00,27.0,16.0,30.14,South,172,7.0,15.0,63,0.00,,,0.00,,2013-01-27 07:41:00,
2013-01-27 01:51:00,27.0,16.0,30.14,SSE,156,8.0,14.0,63,0.00,,,0.00,,2013-01-27 07:51:00,
2013-01-27 02:01:00,27.0,16.0,30.14,SSW,203,6.0,14.0,63,0.00,,,0.00,,2013-01-27 08:01:00,
2013-01-27 02:11:00,27.0,16.0,30.14,SSW,203,6.0,14.0,63,0.00,,,0.00,,2013-01-27 08:11:00,
2013-01-27 02:22:00,27.0,16.0,30.14,South,186,6.0,14.0,64,0.00,,,0.00,,2013-01-27 08:22:00,
2013-01-27 02:31:00,27.0,16.0,30.14,South,183,6.0,12.0,64,0.00,,,0.00,,2013-01-27 08:31:00,
2013-01-27 02:42:00,27.0,16.0,30.14,South,183,6.0,12.0,64,0.00,,,0.00,,2013-01-27 08:42:00,
2013-01-27 02:52:00,27.0,16.0,30.12,South,175,5.0,8.0,64,0.00,,,0.00,,2013-01-27 08:52:00,
2013-01-27 03:02:00,27.0,17.0,30.12,ESE,109,5.0,9.0,65,0.00,,,0.00,,2013-01-27 09:02:00,
2013-01-27 03:11:00,27.0,17.0,30.12,ESE,109,5.0,9.0,65,0.00,,,0.00,,2013-01-27 09:11:00,
2013-01-27 03:21:00,28.0,17.0,30.12,SE,127,4.0,11.0,64,0.00,,,0.00,,2013-01-27 09:21:00,
2013-01-27 03:32:00,28.0,17.0,30.11,SSW,197,5.0,10.0,63,0.00,,,0.00,,2013-01-27 09:32:00,
2013-01-27 03:41:00,28.0,17.0,30.11,SSW,197,5.0,10.0,63,0.00,,,0.00,,2013-01-27 09:41:00,
2013-01-27 03:51:00,27.0,16.0,30.10,SW,224,3.0,8.0,64,0.00,,,0.00,,2013-01-27 09:51:00,
2013-01-27 04:01:00,28.0,17.0,30.10,SSE,166,4.0,9.0,64,0.00,,,0.00,,2013-01-27 10:01:00,
2013-01-27 04:11:00,28.0,17.0,30.10,SSE,166,4.0,9.0,64,0.00,,,0.00,,2013-01-27 10:11:00,
2013-01-27 04:21:00,28.0,17.0,30.09,South,176,5.0,10.0,64,0.00,,,0.00,,2013-01-27 10:21:00,
2013-01-27 04:31:00,28.0,17.0,30.09,SSE,154,5.0,10.0,63,0.00,,,0.00,,2013-01-27 10:31:00,
2013-01-27 04:42:00,28.0,17.0,30.09,SSE,154,5.0,10.0,63,0.00,,,0.00,,2013-01-27 10:42:00,
2013-01-27 04:51:00,29.0,18.0,30.08,SE,139,5.0,11.0,63,0.00,,,0.00,,2013-01-27 10:51:00,
2013-01-27 05:01:00,29.0,18.0,30.08,South,191,5.0,11.0,63,0.00,,,0.00,,2013-01-27 11:01:00,
2013-01-27 05:11:00,29.0,18.0,30.08,South,191,5.0,11.0,63,0.00,,,0.00,,2013-01-27 11:11:00,
2013-01-27 05:21:00,29.0,18.0,30.07,East,87,4.0,8.0,64,0.00,,,0.00,,2013-01-27 11:21:00,
2013-01-27 05:32:00,29.0,18.0,30.07,SSE,160,3.0,9.0,64,0.00,,,0.00,,2013-01-27 11:32:00,
2013-01-27 05:42:00,29.0,18.0,30.07,SSE,160,3.0,9.0,64,0.00,,,0.00,,2013-01-27 11:42:00,
2013-01-27 05:52:00,29.0,18.0,30.07,SSE,162,3.0,9.0,64,0.00,,,0.00,,2013-01-27 11:52:00,
2013-01-27 06:02:00,30.0,20.0,30.07,South,174,3.0,9.0,65,0.00,,,0.00,,2013-01-27 12:02:00,
2013-01-27 06:12:00,30.0,20.0,30.07,South,174,3.0,9.0,65,0.00,,,0.00,,2013-01-27 12:12:00,
2013-01-27 06:21:00,30.0,20.0,30.07,SSW,204,2.0,8.0,65,0.00,,,0.00,,2013-01-27 12:21:00,
2013-01-27 06:32:00,30.0,20.0,30.06,SSE,163,2.0,7.0,65,0.00,,,0.00,,2013-01-27 12:32:00,
2013-01-27 06:42:00,30.0,20.0,30.06,SSE,163,2.0,7.0,65,0.00,,,0.00,,2013-01-27 12:42:00,
2013-01-27 06:52:00,30.0,20.0,30.04,SW,230,3.0,7.0,65,0.00,,,0.00,,2013-01-27 12:52:00,
2013-01-27 07:02:00,31.0,21.0,30.04,South,186,4.0,12.0,66,0.00,,,0.00,,2013-01-27 13:02:00,
2013-01-27 07:11:00,31.0,21.0,30.04,South,186,4.0,12.0,66,0.00,,,0.00,,2013-01-27 13:11:00,
2013-01-27 07:22:00,30.0,23.0,30.03,SE,141,6.0,14.0,74,0.00,,,0.00,,2013-01-27 13:22:00,
2013-01-27 07:32:00,30.0,25.0,30.03,South,186,4.0,14.0,80,0.00,,,0.00,,2013-01-27 13:32:00,
2013-01-27 07:42:00,30.0,25.0,30.03,South,186,4.0,14.0,80,0.00,,,0.00,,2013-01-27 13:42:00,
2013-01-27 07:52:00,30.0,26.0,30.02,SSW,194,4.0,8.0,84,0.00,,,0.00,,2013-01-27 13:52:00,
2013-01-27 08:02:00,30.0,26.0,30.01,SE,142,4.0,9.0,86,0.00,,,0.00,,2013-01-27 14:02:00,
2013-01-27 08:12:00,30.0,26.0,30.01,SE,142,4.0,9.0,86,0.00,,,0.00,,2013-01-27 14:12:00,
2013-01-27 08:22:00,30.0,27.0,30.00,South,183,6.0,14.0,88,0.00,,,0.00,,2013-01-27 14:22:00,
2013-01-27 08:32:00,30.0,27.0,30.01,South,180,7.0,14.0,89,0.00,,,0.00,,2013-01-27 14:32:00,
2013-01-27 08:42:00,30.0,27.0,30.01,South,180,7.0,14.0,89,0.00,,,0.00,,2013-01-27 14:42:00,
2013-01-27 08:52:00,31.0,28.0,30.00,SE,124,6.0,13.0,90,0.00,,,0.00,,2013-01-27 14:52:00,
2013-01-27 09:02:00,31.0,29.0,30.00,South,169,6.0,10.0,91,0.00,,,0.00,,2013-01-27 15:02:00,
2013-01-27 09:12:00,31.0,29.0,30.00,South,169,6.0,10.0,91,0.00,,,0.00,,2013-01-27 15:12:00,
2013-01-27 09:22:00,31.0,29.0,29.98,SSE,160,6.0,12.0,91,0.00,,,0.00,,2013-01-27 15:22:00,
2013-01-27 09:32:00,31.0,29.0,29.97,SW,236,3.0,10.0,93,0.00,,,0.00,,2013-01-27 15:32:00,
2013-01-27 09:42:00,31.0,29.0,29.97,SW,236,3.0,10.0,93,0.00,,,0.00,,2013-01-27 15:42:00,
2013-01-27 09:52:00,31.0,29.0,29.98,SSW,208,4.0,11.0,93,0.00,,,0.00,,2013-01-27 15:52:00,
2013-01-27 10:02:00,31.0,29.0,29.98,SSE,160,5.0,10.0,93,0.00,,,0.00,,2013-01-27 16:02:00,
2013-01-27 10:12:00,31.0,29.0,29.98,SSE,160,5.0,10.0,93,0.00,,,0.00,,2013-01-27 16:12:00,
2013-01-27 10:21:00,31.0,29.0,29.97,SSW,200,5.0,14.0,93,0.00,,,0.00,,2013-01-27 16:21:00,
2013-01-27 10:32:00,32.0,30.0,29.96,SSE,150,4.0,10.0,94,0.00,,,0.00,,2013-01-27 16:32:00,
2013-01-27 10:42:00,32.0,30.0,29.96,SSE,150,4.0,10.0,94,0.00,,,0.00,,2013-01-27 16:42:00,
2013-01-27 10:52:00,32.0,30.0,29.96,SSE,150,4.0,9.0,94,0.00,,,0.00,,2013-01-27 16:52:00,
2013-01-27 11:02:00,32.0,30.0,29.96,South,176,4.0,9.0,94,0.00,,,0.00,,2013-01-27 17:02:00,
2013-01-27 11:12:00,32.0,30.0,29.96,South,176,4.0,9.0,94,0.00,,,0.00,,2013-01-27 17:12:00,
2013-01-27 11:22:00,32.0,30.0,29.96,South,183,4.0,9.0,94,0.00,,,0.00,,2013-01-27 17:22:00,
2013-01-27 11:32:00,32.0,30.0,29.96,South,172,4.0,8.0,94,0.00,,,0.00,,2013-01-27 17:32:00,
2013-01-27 11:42:00,32.0,30.0,29.96,South,172,4.0,8.0,94,0.00,,,0.00,,2013-01-27 17:42:00,
2013-01-27 11:52:00,32.0,30.0,29.95,South,175,5.0,10.0,94,0.00,,,0.00,,2013-01-27 17:52:00,
2013-01-27 12:02:00,32.0,30.0,29.94,SSW,193,5.0,10.0,94,0.00,,,0.00,,2013-01-27 18:02:00,
2013-01-27 12:11:00,32.0,30.0,29.94,SSW,193,5.0,10.0,94,0.00,,,0.00,,2013-01-27 18:11:00,
2013-01-27 12:22:00,32.0,30.0,29.93,SSE,150,4.0,10.0,94,0.00,,,0.00,,2013-01-27 18:22:00,
2013-01-27 12:32:00,32.0,30.0,29.91,SSE,162,3.0,8.0,94,0.00,,,0.00,,2013-01-27 18:32:00,
2013-01-27 12:42:00,32.0,30.0,29.91,SSE,162,3.0,8.0,94,0.00,,,0.00,,2013-01-27 18:42:00,
2013-01-27 12:52:00,32.0,30.0,29.91,South,170,3.0,10.0,94,0.00,,,0.00,,2013-01-27 18:52:00,
2013-01-27 13:02:00,32.0,30.0,29.91,South,185,3.0,8.0,94,0.00,,,0.00,,2013-01-27 19:02:00,
2013-01-27 13:11:00,32.0,30.0,29.91,South,185,3.0,8.0,94,0.00,,,0.00,,2013-01-27 19:11:00,
2013-01-27 13:22:00,32.0,30.0,29.90,SSE,153,2.0,6.0,94,0.00,,,0.00,,2013-01-27 19:22:00,
2013-01-27 13:32:00,32.0,30.0,29.88,SSE,148,3.0,7.0,94,0.00,,,0.00,,2013-01-27 19:32:00,
2013-01-27 13:42:00,32.0,30.0,29.88,SSE,148,3.0,7.0,94,0.00,,,0.00,,2013-01-27 19:42:00,
2013-01-27 13:52:00,32.0,31.0,29.88,ESE,115,4.0,10.0,95,0.00,,,0.00,,2013-01-27 19:52:00,
2013-01-27 14:02:00,32.0,31.0,29.86,SSW,194,3.0,8.0,95,0.00,,,0.00,,2013-01-27 20:02:00,
2013-01-27 14:11:00,32.0,31.0,29.86,SSW,194,3.0,8.0,95,0.00,,,0.00,,2013-01-27 20:11:00,
2013-01-27 14:22:00,32.0,31.0,29.85,SSW,194,2.0,8.0,95,0.00,,,0.00,,2013-01-27 20:22:00,
2013-01-27 14:33:00,32.0,31.0,29.85,SSW,193,3.0,6.0,95,0.00,,,0.00,,2013-01-27 20:33:00,
2013-01-27 14:42:00,32.0,31.0,29.85,SSW,193,3.0,6.0,95,0.00,,,0.00,,2013-01-27 20:42:00,
2013-01-27 14:52:00,32.0,31.0,29.84,SSW,194,2.0,5.0,95,0.00,,,0.00,,2013-01-27 20:52:00,
2013-01-27 15:02:00,32.0,31.0,29.84,SSW,195,2.0,7.0,95,0.00,,,0.00,,2013-01-27 21:02:00,
2013-01-27 15:12:00,32.0,31.0,29.84,SSW,195,2.0,7.0,95,0.00,,,0.00,,2013-01-27 21:12:00,
2013-01-27 15:22:00,32.0,31.0,29.84,SSW,195,4.0,9.0,95,0.00,,,0.00,,2013-01-27 21:22:00,
2013-01-27 15:33:00,32.0,31.0,29.84,SSW,194,3.0,7.0,95,0.00,,,0.00,,2013-01-27 21:33:00,
2013-01-27 15:42:00,32.0,31.0,29.84,SSW,194,3.0,7.0,95,0.00,,,0.00,,2013-01-27 21:42:00,
2013-01-27 15:52:00,32.0,31.0,29.84,SSW,194,2.0,7.0,95,0.00,,,0.00,,2013-01-27 21:52:00,
2013-01-27 16:02:00,32.0,31.0,29.84,SSW,194,1.0,5.0,95,0.00,,,0.00,,2013-01-27 22:02:00,
2013-01-27 16:11:00,32.0,31.0,29.84,SSW,194,1.0,5.0,95,0.00,,,0.00,,2013-01-27 22:11:00,
2013-01-27 16:22:00,32.0,31.0,29.83,SSW,194,2.0,4.0,95,0.00,,,0.00,,2013-01-27 22:22:00,
2013-01-27 16:32:00,32.0,31.0,29.83,SSW,194,1.0,4.0,95,0.00,,,0.00,,2013-01-27 22:32:00,
2013-01-27 16:42:00,32.0,31.0,29.83,SSW,194,1.0,4.0,95,0.00,,,0.00,,2013-01-27 22:42:00,
2013-01-27 16:52:00,32.0,31.0,29.82,SSW,194,1.0,4.0,95,0.00,,,0.00,,2013-01-27 22:52:00,
2013-01-27 17:02:00,32.0,31.0,29.81,SSW,194,0.0,4.0,95,0.00,,,0.00,,2013-01-27 23:02:00,
2013-01-27 17:12:00,32.0,31.0,29.81,SSW,194,0.0,4.0,95,0.00,,,0.00,,2013-01-27 23:12:00,
2013-01-27 17:21:00,32.0,31.0,29.81,SSW,194,0.0,4.0,95,0.00,,,0.00,,2013-01-27 23:21:00,
2013-01-27 17:32:00,32.0,31.0,29.82,SSW,195,2.0,6.0,95,0.00,,,0.00,,2013-01-27 23:32:00,
2013-01-27 17:41:00,32.0,31.0,29.82,SSW,195,2.0,6.0,95,0.00,,,0.00,,2013-01-27 23:41:00,
2013-01-27 17:53:00,32.0,31.0,29.81,SSW,194,2.0,5.0,95,0.00,,,0.00,,2013-01-27 23:53:00,
2013-01-27 18:02:00,32.0,31.0,29.81,SSW,194,1.0,4.0,96,0.00,,,0.00,,2013-01-28 00:02:00,
2013-01-27 18:11:00,32.0,31.0,29.81,SSW,194,1.0,4.0,96,0.00,,,0.00,,2013-01-28 00:11:00,
2013-01-27 18:21:00,32.0,31.0,29.81,SSW,195,1.0,5.0,96,0.00,,,0.00,,2013-01-28 00:21:00,
2013-01-27 18:32:00,32.0,31.0,29.81,SSW,194,0.0,3.0,96,0.00,,,0.00,,2013-01-28 00:32:00,
2013-01-27 18:42:00,32.0,31.0,29.81,SSW,194,0.0,3.0,96,0.00,,,0.00,,2013-01-28 00:42:00,
2013-01-27 18:51:00,32.0,31.0,29.81,SSW,194,0.0,2.0,96,0.00,,,0.00,,2013-01-28 00:51:00,
2013-01-27 19:02:00,32.0,31.0,29.82,SSW,194,1.0,3.0,96,0.00,,,0.00,,2013-01-28 01:02:00,
2013-01-27 19:11:00,32.0,31.0,29.82,SSW,194,1.0,3.0,96,0.00,,,0.00,,2013-01-28 01:11:00,
2013-01-27 19:22:00,32.0,31.0,29.83,SSW,194,0.0,2.0,96,0.00,,,0.00,,2013-01-28 01:22:00,
2013-01-27 19:33:00,32.0,31.0,29.83,SSW,194,0.0,2.0,96,0.00,,,0.00,,2013-01-28 01:33:00,
2013-01-27 19:42:00,32.0,31.0,29.83,SSW,194,0.0,2.0,96,0.00,,,0.00,,2013-01-28 01:42:00,
2013-01-27 19:52:00,32.0,31.0,29.83,SSW,194,0.0,3.0,96,0.00,,,0.00,,2013-01-28 01:52:00,
2013-01-27 20:02:00,32.0,31.0,29.83,SSW,194,0.0,2.0,96,0.00,,,0.00,,2013-01-28 02:02:00,
2013-01-27 20:11:00,32.0,31.0,29.83,SSW,194,0.0,2.0,96,0.00,,,0.00,,2013-01-28 02:11:00,
2013-01-27 20:22:00,32.0,31.0,29.82,SSW,194,0.0,1.0,96,0.00,,,0.00,,2013-01-28 02:22:00,
2013-01-27 20:32:00,32.0,31.0,29.82,SSW,194,0.0,1.0,96,0.00,,,0.00,,2013-01-28 02:32:00,
2013-01-27 20:42:00,32.0,31.0,29.82,SSW,194,0.0,1.0,96,0.00,,,0.00,,2013-01-28 02:42:00,
2013-01-27 20:52:00,32.0,31.0,29.83,SSW,194,1.0,3.0,96,0.00,,,0.00,,2013-01-28 02:52:00,
2013-01-27 21:02:00,32.0,31.0,29.82,SSW,194,1.0,2.0,96,0.00,,,0.00,,2013-01-28 03:02:00,
2013-01-27 21:12:00,32.0,31.0,29.82,SSW,194,1.0,2.0,96,0.00,,,0.00,,2013-01-28 03:12:00,
2013-01-27 21:22:00,32.0,31.0,29.82,SSW,194,0.0,2.0,96,0.00,,,0.00,,2013-01-28 03:22:00,
2013-01-27 21:32:00,32.0,31.0,29.82,SSW,194,0.0,1.0,96,0.00,,,0.00,,2013-01-28 03:32:00,
2013-01-27 21:42:00,32.0,31.0,29.82,SSW,194,0.0,1.0,96,0.00,,,0.00,,2013-01-28 03:42:00,
2013-01-27 21:52:00,32.0,31.0,29.82,SSW,195,0.0,0.0,96,0.00,,,0.00,,2013-01-28 03:52:00,
2013-01-27 22:02:00,32.0,31.0,29.82,SSW,194,0.0,1.0,96,0.00,,,0.00,,2013-01-28 04:02:00,
2013-01-27 22:11:00,32.0,31.0,29.82,SSW,194,0.0,1.0,96,0.00,,,0.00,,2013-01-28 04:11:00,
2013-01-27 22:22:00,32.0,31.0,29.82,SSW,194,0.0,0.0,96,0.00,,,0.00,,2013-01-28 04:22:00,
2013-01-27 22:32:00,32.0,31.0,29.82,SSW,194,0.0,0.0,96,0.00,,,0.00,,2013-01-28 04:32:00,
2013-01-27 22:42:00,32.0,31.0,29.82,SSW,194,0.0,0.0,96,0.00,,,0.00,,2013-01-28 04:42:00,
2013-01-27 22:52:00,32.0,31.0,29.82,SSW,194,0.0,0.0,96,0.00,,,0.00,,2013-01-28 04:52:00,
2013-01-27 23:04:00,32.0,31.0,29.83,SSW,194,0.0,0.0,96,0.00,,,0.00,,2013-01-28 05:04:00,
2013-01-27 23:11:00,32.0,31.0,29.83,SSW,194,0.0,0.0,96,0.00,,,0.00,,2013-01-28 05:11:00,
2013-01-27 23:21:00,32.0,31.0,29.83,SSW,194,0.0,0.0,96,0.00,,,0.00,,2013-01-28 05:21:00,
2013-01-27 23:32:00,32.0,31.0,29.83,SSW,194,0.0,1.0,96,0.00,,,0.00,,2013-01-28 05:32:00,
2013-01-27 23:41:00,32.0,31.0,29.83,SSW,194,0.0,1.0,96,0.00,,,0.00,,2013-01-28 05:41:00,
2013-01-27 23:52:00,32.0,31.0,29.83,SSW,194,0.0,0.0,96,0.00,,,0.00,,2013-01-28 05:52:00,